Impacts METAR Board
IDs:

KMEM - Memphis Intl, TN, US

Updated at: 1800 UTC 24 Jun 2018
Potential Impact None Slight Moderate High
Time 24/06Z 24/07Z 24/08Z 24/09Z 24/10Z 24/11Z 24/12Z 24/13Z 24/14Z 24/15Z 24/16Z 24/17Z 24/18Z
Temp81 81 80 76 75 74 71 73 76 83 85 86 88
Dewpt77 77 76 71 72 73 70 72 72 75 75 74 74
Altim29.86 29.87 29.87 29.88 29.92 29.93 29.97 29.96 29.98 29.96 29.99 30.00 29.98
VIS10 10 10 10 10 10 10 10 10 10 10 10 10
CIG-- -- 250 140 110 24 13 34 150 -- -- 150 200
CoverSCTSCTOVCOVCOVCOVCOVCBKNBKNSCTSCTBKNBKN
FltCatVFRVFRVFRVFRVFRMVFRMVFRVFRVFRVFRVFRVFRVFR
WX----TSTSRATSTSTSRA------------
WDir210230210210360130340110110190220240230
WSpd7 6 8 10 13 6 8 7 4 7 12 11 10
WGst-- -- -- -- 20 -- 18 -- -- -- -- 22 --
Raw hourly METARs
KMEM 240601Z 21007KT 10SM SCT039 27/25 A2986 RMK AO2 LTG DSNT W T02720250 $
KMEM 240654Z 23006KT 10SM FEW039 FEW046 SCT250 27/25 A2987 RMK AO2 LTG DSNT SW AND W SLP110 CONS LTG DSNT SW T02720250 $
KMEM 240754Z 21008KT 10SM TS SCT060CB SCT150 OVC250 27/24 A2987 RMK AO2 LTG DSNT S-NW TSB44 SLP109 CONS LTGICCCCACG S-W TS S-W MOV E T02670244 $
KMEM 240854Z 21010KT 10SM R36L/5500VP6000FT TSRA FEW060CB SCT090 OVC140 24/22 A2988 RMK AO2 LTG DSNT ALQDS RAB07 SLP114 FRQ LTGICCCCACG S AND OHD TS S AND OHD MOV E P0003 60003 T02440217 53007 $
KMEM 240954Z 36013G20KT 10SM TS FEW038CB FEW055 OVC110 24/22 A2992 RMK AO2 PK WND 22026/0855 LTG DSNT W-NE RAE37 PRESRR SLP127 CONS LTGICCCCACG W-NE TS W-NE MOV E P0014 T02390222 $
KMEM 241054Z 13006KT 10SM TS BKN024 BKN055CB OVC085 23/23 A2993 RMK AO2 LTG DSNT ALQDS RAB0958E53 SLP130 CONS LTGICCCCACG ALQDS TS ALQDS MOV E P0013 T02330228 $
KMEM 241154Z 34008G18KT 10SM TSRA SCT008 BKN013 OVC019CB 22/21 A2997 RMK AO2 LTG DSNT ALQDS RAB10 SLP143 CONS LTGICCCCACG ALQDS TS ALQDS MOV E P0001 60031 70097 T02170211 10278 20217 53016 $
KMEM 241254Z 11007KT 10SM FEW013 BKN034 BKN200 23/22 A2996 RMK AO2 LTG DSNT NW-NE RAE31 TSE36 SLP142 FRQ LTG DSNT NE P0017 T02280222 $
KMEM 241354Z 11004KT 10SM FEW034 BKN150 24/22 A2998 RMK AO2 SLP147 T02440222 $
KMEM 241454Z 19007KT 10SM FEW030 SCT200 28/24 A2996 RMK AO2 SLP142 60017 T02830239 58002 $
KMEM 241554Z 22012KT 10SM FEW030 SCT150 SCT200 29/24 A2999 RMK AO2 SLP149 T02940239
KMEM 241654Z 24011G22KT 10SM FEW028 SCT036 BKN150 30/23 A3000 RMK AO2 SLP152 T03000233
KMEM 241754Z 23010KT 10SM FEW036 SCT047 BKN200 31/23 A2998 RMK AO2 SLP146 60017 T03110233 10311 20211 50005



Page loaded:  18:14 UTC  |   11:14 AM Pacific  |   12:14 PM Mountain  |   01:14 PM Central  |   02:14 PM Eastern

 

ADVISORIES

FORECASTS

FORECASTS

OBSERVATIONS

USER TOOLS

ABOUT US